Time;durP1;ratioP1;P1;durP2;ratioP2;P2;SDS_P1;SDS_P2;PMS_P1;PMS_P2;Temp;Humidity;BMP_temperature;BMP_pressure;BME280_temperature;BME280_humidity;BME280_pressure;Samples;Min_cycle;Max_cycle;Signal;HPM_P1;HPM_P2
2022/12/09 00:02:02;;;;;;;34.10;22.57;;;-2.50;99.90;;;;;;5074854;28;20208;-74
2022/12/09 00:04:29;;;;;;;40.07;23.07;;;-2.50;99.90;;;;;;5076482;28;20206;-74
2022/12/09 00:06:55;;;;;;;39.73;24.00;;;-2.60;99.90;;;;;;5077239;28;20235;-74
2022/12/09 00:09:22;;;;;;;36.83;22.70;;;-2.60;99.90;;;;;;5074401;28;20232;-74
2022/12/09 00:11:51;;;;;;;44.20;27.03;;;-2.50;99.90;;;;;;5073732;28;20257;-75
2022/12/09 00:14:19;;;;;;;43.17;25.77;;;-2.50;99.90;;;;;;5073990;28;20201;-74
2022/12/09 00:16:46;;;;;;;40.50;23.60;;;-2.30;99.90;;;;;;5073134;28;20200;-74
2022/12/09 00:19:12;;;;;;;45.77;25.40;;;-2.30;99.90;;;;;;5073150;28;20203;-74
2022/12/09 00:21:39;;;;;;;41.77;24.80;;;-2.40;99.90;;;;;;5073122;28;20203;-75
2022/12/09 00:24:07;;;;;;;43.87;25.13;;;-2.50;99.90;;;;;;5073060;28;20223;-74
2022/12/09 00:26:34;;;;;;;38.07;22.93;;;-2.60;99.90;;;;;;5073423;28;20199;-75
2022/12/09 00:29:01;;;;;;;48.07;24.77;;;-2.70;99.90;;;;;;5074014;28;20199;-73
2022/12/09 00:31:32;;;;;;;40.03;23.53;;;-2.70;99.90;;;;;;5072751;28;20225;-73
2022/12/09 00:34:00;;;;;;;43.87;25.37;;;-2.70;99.90;;;;;;5073233;28;20203;-73
2022/12/09 00:36:28;;;;;;;38.33;23.80;;;-2.80;99.90;;;;;;5072918;28;20256;-74
2022/12/09 00:38:56;;;;;;;39.20;22.97;;;-2.70;99.90;;;;;;5072974;28;20195;-73
2022/12/09 00:41:23;;;;;;;44.00;24.77;;;-2.70;99.90;;;;;;5072897;28;20198;-73
2022/12/09 00:43:49;;;;;;;42.93;24.67;;;-2.70;99.90;;;;;;5072752;28;20203;-73
2022/12/09 00:46:16;;;;;;;40.20;23.83;;;-2.70;99.90;;;;;;5072877;28;20208;-73
2022/12/09 00:48:45;;;;;;;37.63;22.70;;;-2.70;99.90;;;;;;5072709;28;20260;-73
2022/12/09 00:51:16;;;;;;;40.60;23.97;;;-2.70;99.90;;;;;;5072574;28;20258;-73
2022/12/09 00:53:43;;;;;;;42.33;23.43;;;-2.80;99.90;;;;;;5073270;28;20253;-73
2022/12/09 00:56:10;;;;;;;39.97;22.57;;;-2.80;99.90;;;;;;5072696;28;20204;-73
2022/12/09 00:58:37;;;;;;;39.57;23.20;;;-2.80;99.90;;;;;;5072679;28;20199;-73
2022/12/09 01:01:04;;;;;;;41.93;23.30;;;-2.90;99.90;;;;;;5072872;28;20616;-73
2022/12/09 01:03:30;;;;;;;40.00;23.73;;;-2.90;99.90;;;;;;5072888;28;20241;-73
2022/12/09 01:05:59;;;;;;;41.03;22.60;;;-3.00;99.90;;;;;;5072806;28;20260;-74
2022/12/09 01:08:25;;;;;;;36.53;22.00;;;-2.90;99.90;;;;;;5072720;28;20231;-73
2022/12/09 01:10:52;;;;;;;43.93;23.70;;;-2.90;99.90;;;;;;5073231;28;20624;-73
2022/12/09 01:13:18;;;;;;;43.03;22.93;;;-2.90;99.90;;;;;;5076246;28;20256;-73
2022/12/09 01:15:45;;;;;;;38.90;22.27;;;-3.00;99.90;;;;;;5078370;28;20199;-73
2022/12/09 01:18:12;;;;;;;38.00;21.37;;;-3.10;99.90;;;;;;5082319;28;20229;-74
2022/12/09 01:20:39;;;;;;;37.50;21.20;;;-3.10;99.90;;;;;;5083726;28;20240;-74
2022/12/09 01:23:07;;;;;;;39.03;21.63;;;-3.20;99.90;;;;;;5083981;28;20199;-74
2022/12/09 01:25:34;;;;;;;40.10;20.97;;;-3.10;99.90;;;;;;5083542;28;20195;-74
2022/12/09 01:28:00;;;;;;;41.63;22.30;;;-3.10;99.90;;;;;;5083271;28;20248;-74
2022/12/09 01:30:27;;;;;;;44.03;22.27;;;-3.20;99.90;;;;;;5082385;28;20349;-73
2022/12/09 01:32:54;;;;;;;44.53;22.63;;;-3.20;99.90;;;;;;5082317;28;20200;-74
2022/12/09 01:35:20;;;;;;;42.43;23.13;;;-3.10;99.90;;;;;;5080029;28;20244;-73
2022/12/09 01:37:47;;;;;;;37.50;22.90;;;-3.10;99.90;;;;;;5082203;28;20206;-74
2022/12/09 01:40:17;;;;;;;38.30;22.17;;;-3.20;99.90;;;;;;5081870;28;20202;-73
2022/12/09 01:42:44;;;;;;;43.70;23.03;;;-3.20;99.90;;;;;;5082694;28;20290;-73
2022/12/09 01:45:36;;;;;;;43.40;23.50;;;-3.30;99.90;;;;;;5082962;28;20277;-73
2022/12/09 01:48:07;;;;;;;40.13;22.63;;;-3.20;99.90;;;;;;5075217;28;20202;-73
2022/12/09 01:50:36;;;;;;;45.30;23.40;;;-3.30;99.90;;;;;;5081203;28;20222;-73
2022/12/09 01:53:02;;;;;;;39.83;22.73;;;-3.40;99.90;;;;;;5081381;28;20224;-73
2022/12/09 01:55:30;;;;;;;37.43;21.07;;;-3.40;99.90;;;;;;5080704;28;20197;-73
2022/12/09 01:57:57;;;;;;;38.20;22.20;;;-3.60;99.90;;;;;;5080736;28;20206;-73
2022/12/09 02:00:24;;;;;;;39.90;22.63;;;-3.60;99.90;;;;;;5076173;28;20205;-73
2022/12/09 02:02:54;;;;;;;39.27;21.37;;;-3.80;99.90;;;;;;5075991;28;20543;-73
2022/12/09 02:05:23;;;;;;;40.20;21.83;;;-3.70;99.90;;;;;;5075934;28;20244;-73
2022/12/09 02:07:49;;;;;;;41.50;22.90;;;-3.70;99.90;;;;;;5075810;28;20245;-74
2022/12/09 02:10:18;;;;;;;41.80;23.03;;;-3.70;99.90;;;;;;5076247;28;20225;-73
2022/12/09 02:12:54;;;;;;;42.67;22.90;;;-3.60;99.90;;;;;;5075815;28;20205;-73
2022/12/09 02:15:24;;;;;;;42.20;23.23;;;-3.60;99.90;;;;;;5075403;28;20197;-73
2022/12/09 02:17:54;;;;;;;39.33;23.17;;;-3.50;99.90;;;;;;5075179;28;20204;-73
2022/12/09 02:20:30;;;;;;;37.97;22.30;;;-3.50;99.90;;;;;;5075204;28;20208;-73
2022/12/09 02:23:04;;;;;;;44.03;23.13;;;-3.60;99.90;;;;;;5075042;28;20250;-73
2022/12/09 02:25:38;;;;;;;43.07;23.00;;;-3.70;99.90;;;;;;5074610;28;20201;-73
2022/12/09 02:28:53;;;;;;;38.43;22.47;;;-3.50;99.90;;;;;;5075059;28;20254;-73
2022/12/09 02:31:33;;;;;;;38.87;22.73;;;-3.60;99.90;;;;;;5012936;28;20223;-73
2022/12/09 02:34:10;;;;;;;38.60;22.00;;;-3.80;99.90;;;;;;5014442;28;20610;-73
2022/12/09 02:36:45;;;;;;;36.27;22.00;;;-3.70;99.90;;;;;;5058540;28;20230;-73
2022/12/09 02:39:12;;;;;;;38.30;23.00;;;-3.60;99.90;;;;;;5082660;28;20246;-73
2022/12/09 02:41:41;;;;;;;37.97;22.43;;;-3.60;99.90;;;;;;5082750;28;20266;-73
2022/12/09 02:44:12;;;;;;;39.63;22.07;;;-3.50;99.90;;;;;;5082349;28;20704;-73
2022/12/09 02:46:41;;;;;;;38.63;21.30;;;-3.60;99.90;;;;;;5081812;28;20199;-73
2022/12/09 02:49:09;;;;;;;39.90;22.80;;;-3.70;99.90;;;;;;5083383;28;20198;-73
2022/12/09 02:51:40;;;;;;;42.57;21.73;;;-3.70;99.90;;;;;;5082807;28;20235;-73
2022/12/09 02:54:13;;;;;;;41.43;22.00;;;-3.70;99.90;;;;;;5081045;28;20215;-73
2022/12/09 02:56:44;;;;;;;39.13;21.27;;;-3.70;99.90;;;;;;5082606;28;20224;-73
2022/12/09 02:59:11;;;;;;;36.40;21.13;;;-3.80;99.90;;;;;;5074462;28;20678;-73
2022/12/09 03:01:44;;;;;;;38.27;22.37;;;-3.80;99.90;;;;;;5077693;28;20198;-73
2022/12/09 03:04:16;;;;;;;40.60;22.30;;;-3.80;99.90;;;;;;5078704;28;20657;-73
2022/12/09 03:06:49;;;;;;;37.20;21.60;;;-3.90;99.90;;;;;;5074882;28;20197;-73
2022/12/09 03:09:20;;;;;;;38.37;21.13;;;-3.90;99.90;;;;;;5074228;28;20228;-73
2022/12/09 03:11:47;;;;;;;40.70;21.23;;;-3.80;99.90;;;;;;5073772;28;20228;-73
2022/12/09 03:14:18;;;;;;;39.90;23.57;;;-3.70;99.90;;;;;;5074168;28;20202;-73
2022/12/09 03:16:50;;;;;;;38.97;22.63;;;-3.50;99.90;;;;;;5077151;28;20340;-73
2022/12/09 03:19:22;;;;;;;41.10;23.57;;;-3.30;99.90;;;;;;5081792;28;20252;-73
2022/12/09 03:21:52;;;;;;;39.47;21.80;;;-3.20;99.90;;;;;;5082496;28;20210;-73
2022/12/09 03:24:24;;;;;;;41.90;24.30;;;-3.20;99.90;;;;;;5080784;28;20222;-73
2022/12/09 03:26:52;;;;;;;37.80;23.43;;;-3.10;99.90;;;;;;5075759;28;20211;-73
2022/12/09 03:29:21;;;;;;;43.77;23.93;;;-3.10;99.90;;;;;;5074007;28;20251;-73
2022/12/09 03:31:48;;;;;;;49.93;24.23;;;-3.10;99.90;;;;;;5073657;28;20231;-73
2022/12/09 03:34:18;;;;;;;42.77;23.67;;;-3.00;99.90;;;;;;5073508;28;20245;-73
2022/12/09 03:36:48;;;;;;;51.30;25.30;;;-3.00;99.90;;;;;;5073222;28;20252;-73
2022/12/09 03:39:18;;;;;;;40.93;24.27;;;-2.90;99.90;;;;;;5073620;28;20257;-73
2022/12/09 03:41:48;;;;;;;44.70;23.93;;;-2.90;99.90;;;;;;5073357;28;20731;-73
2022/12/09 03:44:22;;;;;;;45.43;24.03;;;-2.80;99.90;;;;;;5073415;28;20204;-73
2022/12/09 03:46:48;;;;;;;41.63;24.60;;;-2.90;99.90;;;;;;5073482;28;20612;-73
2022/12/09 03:49:15;;;;;;;46.77;24.57;;;-2.80;99.90;;;;;;5073449;28;20203;-73
2022/12/09 03:51:47;;;;;;;46.70;24.50;;;-2.80;99.90;;;;;;5073510;28;20224;-73
2022/12/09 03:54:19;;;;;;;47.53;25.40;;;-2.80;99.90;;;;;;5073464;28;20199;-73
2022/12/09 03:56:48;;;;;;;48.07;26.10;;;-2.80;99.90;;;;;;5073465;28;20204;-73
2022/12/09 03:59:16;;;;;;;44.87;25.40;;;-2.80;99.90;;;;;;5073376;28;20196;-73
2022/12/09 04:01:45;;;;;;;47.50;25.83;;;-2.70;99.90;;;;;;5073216;28;20288;-73
2022/12/09 04:04:11;;;;;;;45.30;25.07;;;-2.70;99.90;;;;;;5073167;28;20720;-73
2022/12/09 04:06:39;;;;;;;47.57;26.93;;;-2.70;99.90;;;;;;5073743;28;20203;-74
2022/12/09 04:09:06;;;;;;;48.83;25.83;;;-2.60;99.90;;;;;;5073418;28;20235;-74
2022/12/09 04:11:34;;;;;;;51.03;27.47;;;-2.50;99.90;;;;;;5074041;28;20224;-74
2022/12/09 04:14:01;;;;;;;46.03;25.33;;;-2.50;99.90;;;;;;5073040;28;20195;-73
2022/12/09 04:16:28;;;;;;;45.93;26.30;;;-2.50;99.90;;;;;;5073025;28;20301;-74
2022/12/09 04:18:54;;;;;;;57.03;27.10;;;-2.50;99.90;;;;;;5073598;28;20204;-73
2022/12/09 04:21:21;;;;;;;47.70;25.60;;;-2.40;99.90;;;;;;5074535;28;20207;-73
2022/12/09 04:23:48;;;;;;;47.50;26.17;;;-2.40;99.90;;;;;;5073345;28;20204;-74
2022/12/09 04:26:19;;;;;;;45.27;25.27;;;-2.40;99.90;;;;;;5073023;28;20249;-73
2022/12/09 04:28:45;;;;;;;49.97;26.77;;;-2.50;99.90;;;;;;5072989;28;20264;-73
2022/12/09 04:31:13;;;;;;;47.50;25.60;;;-2.40;99.90;;;;;;5072797;28;20637;-73
2022/12/09 04:33:41;;;;;;;42.90;24.40;;;-2.40;99.90;;;;;;5073081;28;20195;-73
2022/12/09 04:36:10;;;;;;;42.27;24.27;;;-2.50;99.90;;;;;;5072821;28;20251;-73
2022/12/09 04:38:37;;;;;;;39.93;24.00;;;-2.50;99.90;;;;;;5072901;28;20734;-73
2022/12/09 04:41:04;;;;;;;42.07;25.17;;;-2.50;99.90;;;;;;5073096;28;20214;-73
2022/12/09 04:43:32;;;;;;;41.47;24.00;;;-2.50;99.90;;;;;;5072853;28;20718;-73
2022/12/09 04:46:01;;;;;;;41.70;23.77;;;-2.50;99.90;;;;;;5073162;28;20208;-73
2022/12/09 04:48:28;;;;;;;38.67;24.23;;;-2.50;99.90;;;;;;5075867;28;20199;-73
2022/12/09 04:50:55;;;;;;;45.07;26.23;;;-2.40;99.90;;;;;;5076784;28;20254;-73
2022/12/09 04:53:21;;;;;;;41.20;24.83;;;-2.40;99.90;;;;;;5076477;28;20651;-73
2022/12/09 04:55:48;;;;;;;46.63;25.17;;;-2.40;99.90;;;;;;5076626;28;20678;-73
2022/12/09 04:58:14;;;;;;;43.40;25.73;;;-2.40;99.90;;;;;;5076471;28;20253;-73
2022/12/09 05:00:42;;;;;;;43.30;24.77;;;-2.40;99.90;;;;;;5076395;28;20206;-73
2022/12/09 05:03:09;;;;;;;46.87;27.90;;;-2.50;99.90;;;;;;5076314;28;20202;-73
2022/12/09 05:05:39;;;;;;;47.23;26.67;;;-2.50;99.90;;;;;;5076503;28;20533;-73
2022/12/09 05:08:06;;;;;;;42.13;24.77;;;-2.50;99.90;;;;;;5076552;28;20226;-73
2022/12/09 05:10:33;;;;;;;44.73;25.67;;;-2.60;99.90;;;;;;5076321;28;20202;-73
2022/12/09 05:13:00;;;;;;;44.17;26.47;;;-2.60;99.90;;;;;;5076391;28;20223;-73
2022/12/09 05:15:27;;;;;;;47.33;25.93;;;-2.60;99.90;;;;;;5076063;28;20206;-73
2022/12/09 05:17:57;;;;;;;43.57;25.07;;;-2.70;99.90;;;;;;5076162;28;20601;-73
2022/12/09 05:20:27;;;;;;;41.77;24.67;;;-2.70;99.90;;;;;;5076169;28;20251;-73
2022/12/09 05:22:54;;;;;;;41.27;24.77;;;-2.70;99.90;;;;;;5075858;28;20249;-73
2022/12/09 05:25:21;;;;;;;42.13;24.43;;;-2.70;99.90;;;;;;5076421;28;20198;-73
2022/12/09 05:27:48;;;;;;;45.90;25.10;;;-2.80;99.90;;;;;;5076200;28;20248;-72
2022/12/09 05:30:14;;;;;;;45.37;25.47;;;-2.70;99.90;;;;;;5076073;28;20246;-72
2022/12/09 05:32:41;;;;;;;41.87;25.57;;;-2.60;99.90;;;;;;5075967;28;20273;-73
2022/12/09 05:35:10;;;;;;;45.97;25.93;;;-2.60;99.90;;;;;;5075818;28;20197;-73
2022/12/09 05:37:36;;;;;;;47.87;26.17;;;-2.70;99.90;;;;;;5075978;28;20227;-73
2022/12/09 05:40:04;;;;;;;43.67;25.47;;;-2.60;99.90;;;;;;5076041;28;20207;-73
2022/12/09 05:42:30;;;;;;;41.50;24.30;;;-2.70;99.90;;;;;;5076105;28;20258;-73
2022/12/09 05:44:57;;;;;;;40.17;23.67;;;-2.60;99.90;;;;;;5075918;28;20676;-73
2022/12/09 05:47:23;;;;;;;40.83;25.27;;;-2.60;99.90;;;;;;5075945;28;20200;-73
2022/12/09 05:49:50;;;;;;;40.30;25.13;;;-2.60;99.90;;;;;;5075700;28;20602;-74
2022/12/09 05:52:18;;;;;;;40.10;24.83;;;-2.50;99.90;;;;;;5075594;28;20228;-73
2022/12/09 05:54:45;;;;;;;39.87;24.17;;;-2.50;99.90;;;;;;5076945;28;20193;-73
2022/12/09 05:57:11;;;;;;;44.43;25.13;;;-2.50;99.90;;;;;;5077673;28;20207;-74
2022/12/09 05:59:38;;;;;;;43.90;26.37;;;-2.50;99.90;;;;;;5075961;28;20644;-74
2022/12/09 06:02:04;;;;;;;49.37;30.13;;;-2.40;99.90;;;;;;5075997;28;20659;-74
2022/12/09 06:04:31;;;;;;;43.20;26.30;;;-2.40;99.90;;;;;;5075834;28;20250;-73
2022/12/09 06:06:58;;;;;;;45.60;26.47;;;-2.30;99.90;;;;;;5075430;28;20253;-74
2022/12/09 06:09:26;;;;;;;40.90;24.40;;;-2.30;99.90;;;;;;5074887;28;20225;-74
2022/12/09 06:11:52;;;;;;;50.13;27.47;;;-2.30;99.90;;;;;;5075267;28;20318;-73
2022/12/09 06:14:19;;;;;;;47.57;27.03;;;-2.30;99.90;;;;;;5075018;28;20193;-74
2022/12/09 06:16:46;;;;;;;45.40;26.00;;;-2.20;99.90;;;;;;5075409;28;20248;-73
2022/12/09 06:19:12;;;;;;;48.77;27.57;;;-2.20;99.90;;;;;;5075082;28;20652;-73
2022/12/09 06:21:40;;;;;;;49.77;26.00;;;-2.20;99.90;;;;;;5075424;28;20330;-73
2022/12/09 06:24:07;;;;;;;46.40;26.60;;;-2.20;99.90;;;;;;5075200;28;20207;-73
2022/12/09 06:26:35;;;;;;;45.87;27.90;;;-2.20;99.90;;;;;;5074858;28;20260;-73
2022/12/09 06:29:01;;;;;;;46.90;27.33;;;-2.10;99.90;;;;;;5075096;28;20196;-73
2022/12/09 06:31:28;;;;;;;44.13;26.80;;;-2.00;99.90;;;;;;5074933;28;20219;-73
2022/12/09 06:33:55;;;;;;;44.13;27.17;;;-2.00;99.90;;;;;;5074817;28;20201;-73
2022/12/09 06:36:23;;;;;;;46.13;27.07;;;-1.90;99.90;;;;;;5074943;28;20197;-73
2022/12/09 06:38:49;;;;;;;44.80;26.87;;;-1.80;99.90;;;;;;5074965;28;20208;-73
2022/12/09 06:41:16;;;;;;;48.83;28.13;;;-1.80;99.90;;;;;;5075141;28;20205;-73
2022/12/09 06:43:44;;;;;;;47.87;28.93;;;-1.80;99.90;;;;;;5075127;28;20201;-73
2022/12/09 06:46:12;;;;;;;45.63;28.73;;;-1.70;99.90;;;;;;5074762;28;20645;-73
2022/12/09 06:48:38;;;;;;;45.03;28.33;;;-1.70;99.90;;;;;;5075133;28;20201;-73
2022/12/09 06:51:05;;;;;;;50.03;28.80;;;-1.70;99.90;;;;;;5074911;28;20247;-73
2022/12/09 06:53:32;;;;;;;52.43;29.70;;;-1.60;99.90;;;;;;5074990;28;20220;-73
2022/12/09 06:56:01;;;;;;;49.23;29.30;;;-1.50;99.90;;;;;;5074776;28;20197;-74
2022/12/09 06:58:28;;;;;;;48.03;29.47;;;-1.50;99.90;;;;;;5074300;28;20649;-74
2022/12/09 07:01:03;;;;;;;48.60;29.27;;;-1.60;99.90;;;;;;5074255;28;20242;-74
2022/12/09 07:03:30;;;;;;;48.20;28.47;;;-1.60;99.90;;;;;;5074232;28;20223;-74
2022/12/09 07:05:57;;;;;;;51.20;28.70;;;-1.50;99.90;;;;;;5074276;28;20203;-74
2022/12/09 07:08:23;;;;;;;48.20;28.80;;;-1.50;99.90;;;;;;5074220;28;20282;-74
2022/12/09 07:10:50;;;;;;;46.70;28.80;;;-1.50;99.90;;;;;;5073280;28;20660;-74
2022/12/09 07:13:16;;;;;;;52.53;29.00;;;-1.40;99.90;;;;;;5074042;28;20217;-74
2022/12/09 07:15:43;;;;;;;47.13;28.33;;;-1.30;99.90;;;;;;5074344;28;20204;-74
2022/12/09 07:18:11;;;;;;;45.30;28.87;;;-1.30;99.90;;;;;;5076658;28;20250;-74
2022/12/09 07:20:38;;;;;;;47.10;28.27;;;-1.20;99.90;;;;;;5076061;28;20200;-74
2022/12/09 07:23:04;;;;;;;43.33;27.77;;;-1.20;99.90;;;;;;5076264;28;20270;-74
2022/12/09 07:25:31;;;;;;;49.73;27.77;;;-1.20;99.90;;;;;;5076293;28;20242;-74
2022/12/09 07:27:57;;;;;;;47.87;26.93;;;-1.10;99.90;;;;;;5076169;28;20197;-73
2022/12/09 07:30:24;;;;;;;43.30;25.73;;;-1.10;99.90;;;;;;5075959;28;20242;-74
2022/12/09 07:32:51;;;;;;;41.17;24.73;;;-1.10;99.90;;;;;;5076275;28;20224;-74
2022/12/09 07:35:19;;;;;;;39.00;24.20;;;-1.00;99.90;;;;;;5075857;28;20197;-74
2022/12/09 07:37:45;;;;;;;43.47;25.93;;;-1.00;99.90;;;;;;5074514;28;20197;-74
2022/12/09 07:40:12;;;;;;;41.97;25.37;;;-1.00;99.90;;;;;;5074079;28;20250;-74
2022/12/09 07:42:39;;;;;;;46.77;27.63;;;-0.90;99.90;;;;;;5074333;28;20200;-74
2022/12/09 07:45:07;;;;;;;42.53;27.43;;;-0.90;99.90;;;;;;5074791;28;20656;-74
2022/12/09 07:47:33;;;;;;;42.00;25.63;;;-0.90;99.90;;;;;;5074529;28;20648;-74
2022/12/09 07:50:00;;;;;;;38.43;24.67;;;-0.80;99.90;;;;;;5074101;28;20242;-74
2022/12/09 07:52:29;;;;;;;37.90;24.67;;;-0.70;99.90;;;;;;5073501;28;20220;-74
2022/12/09 07:54:58;;;;;;;39.37;24.13;;;-0.70;99.90;;;;;;5073763;28;20268;-74
2022/12/09 07:57:24;;;;;;;32.77;22.27;;;-0.60;99.90;;;;;;5073539;28;20292;-74
2022/12/09 07:59:52;;;;;;;42.20;25.43;;;-0.60;99.90;;;;;;5073651;28;20266;-74
2022/12/09 08:02:18;;;;;;;38.43;24.87;;;-0.50;99.90;;;;;;5073689;28;20204;-74
2022/12/09 08:04:45;;;;;;;37.33;23.63;;;-0.40;99.90;;;;;;5073393;28;20201;-74
2022/12/09 08:07:11;;;;;;;37.10;23.20;;;-0.30;99.90;;;;;;5073552;28;20227;-74
2022/12/09 08:09:39;;;;;;;33.50;22.77;;;-0.30;99.90;;;;;;5073177;28;20233;-74
2022/12/09 08:12:06;;;;;;;36.33;23.47;;;-0.30;99.90;;;;;;5073651;28;20224;-74
2022/12/09 08:14:33;;;;;;;32.57;22.03;;;-0.30;99.90;;;;;;5073234;28;20542;-74
2022/12/09 08:17:00;;;;;;;36.47;22.70;;;-0.20;99.90;;;;;;5073859;28;20653;-74
2022/12/09 08:19:26;;;;;;;38.67;24.93;;;-0.20;99.90;;;;;;5074021;28;20247;-74
2022/12/09 08:21:53;;;;;;;38.87;24.27;;;-0.10;99.90;;;;;;5077750;28;20223;-74
2022/12/09 08:24:21;;;;;;;38.03;24.77;;;-0.10;99.90;;;;;;5078355;28;20201;-74
2022/12/09 08:26:50;;;;;;;34.83;22.73;;;-0.10;99.90;;;;;;5078904;28;20205;-74
2022/12/09 08:29:16;;;;;;;46.30;24.23;;;0.00;99.90;;;;;;5083190;28;20649;-73
2022/12/09 08:31:43;;;;;;;37.13;22.13;;;0.10;99.90;;;;;;5083618;28;20251;-73
2022/12/09 08:34:10;;;;;;;38.40;23.27;;;0.10;99.90;;;;;;5081529;28;20229;-73
2022/12/09 08:36:36;;;;;;;35.50;23.13;;;0.10;99.90;;;;;;5087097;28;20201;-74
2022/12/09 08:39:03;;;;;;;36.43;22.67;;;0.20;99.90;;;;;;5087193;28;20201;-73
2022/12/09 08:41:34;;;;;;;33.13;22.63;;;0.30;99.90;;;;;;5087014;28;20201;-74
2022/12/09 08:44:04;;;;;;;38.57;23.23;;;0.40;99.90;;;;;;5083741;28;20255;-74
2022/12/09 08:46:31;;;;;;;31.33;20.80;;;0.50;99.90;;;;;;5083135;28;20197;-73
2022/12/09 08:49:00;;;;;;;33.43;21.43;;;0.60;99.90;;;;;;5083479;28;20201;-73
2022/12/09 08:51:26;;;;;;;30.53;20.53;;;0.70;99.90;;;;;;5080535;28;20292;-73
2022/12/09 08:53:53;;;;;;;28.60;19.53;;;0.90;99.90;;;;;;5081521;28;20224;-74
2022/12/09 08:56:20;;;;;;;29.10;19.87;;;1.00;99.90;;;;;;5080316;28;20537;-74
2022/12/09 08:58:47;;;;;;;27.13;18.10;;;1.10;99.90;;;;;;5079208;28;20204;-74
2022/12/09 09:01:17;;;;;;;26.57;19.13;;;1.30;99.90;;;;;;5079939;28;20193;-74
2022/12/09 09:03:44;;;;;;;25.87;18.87;;;1.40;99.90;;;;;;5080047;28;20274;-74
2022/12/09 09:06:11;;;;;;;25.83;18.20;;;1.50;99.90;;;;;;5079634;28;20193;-74
2022/12/09 09:08:39;;;;;;;25.83;19.27;;;1.60;99.90;;;;;;5077163;28;20738;-74
2022/12/09 09:11:10;;;;;;;25.53;17.40;;;1.60;99.90;;;;;;5076874;28;20276;-73
2022/12/09 09:13:37;;;;;;;24.53;17.70;;;1.70;99.90;;;;;;5077067;28;20221;-73
2022/12/09 09:16:08;;;;;;;27.33;19.37;;;1.60;99.90;;;;;;5076967;28;20201;-74
2022/12/09 09:18:36;;;;;;;23.27;17.77;;;1.60;99.90;;;;;;5076984;28;20197;-73
2022/12/09 09:21:03;;;;;;;23.70;17.73;;;1.60;99.90;;;;;;5076617;28;20197;-73
2022/12/09 09:23:29;;;;;;;27.67;19.10;;;1.60;99.90;;;;;;5076981;28;20274;-73
2022/12/09 09:25:56;;;;;;;26.57;18.83;;;1.70;99.90;;;;;;5076849;28;20205;-73
2022/12/09 09:28:23;;;;;;;24.40;17.63;;;1.90;99.90;;;;;;5076912;28;20599;-73
2022/12/09 09:30:49;;;;;;;23.80;17.83;;;1.90;99.90;;;;;;5076379;28;20205;-73
2022/12/09 09:33:17;;;;;;;27.00;19.80;;;1.90;99.90;;;;;;5075987;28;20229;-74
2022/12/09 09:35:45;;;;;;;27.57;19.67;;;1.80;99.90;;;;;;5076311;28;20308;-74
2022/12/09 09:38:11;;;;;;;25.07;19.53;;;1.80;99.90;;;;;;5076448;28;20672;-73
2022/12/09 09:40:40;;;;;;;28.67;20.50;;;1.80;99.90;;;;;;5076630;28;20243;-74
2022/12/09 09:43:16;;;;;;;27.87;20.17;;;1.80;99.90;;;;;;5075918;28;20624;-75
2022/12/09 09:45:43;;;;;;;29.20;19.93;;;1.90;99.90;;;;;;5076457;28;20258;-74
2022/12/09 09:48:15;;;;;;;30.47;19.90;;;1.90;99.90;;;;;;5076551;28;20198;-73
2022/12/09 09:50:48;;;;;;;28.83;18.47;;;2.00;99.90;;;;;;5076117;28;20655;-76
2022/12/09 09:53:25;;;;;;;24.20;18.87;;;2.20;99.90;;;;;;5075728;28;20277;-74
2022/12/09 09:55:56;;;;;;;24.47;18.57;;;2.40;99.90;;;;;;5076030;28;20196;-74
2022/12/09 09:58:28;;;;;;;25.57;18.87;;;2.50;99.90;;;;;;5075980;28;20199;-75
2022/12/09 10:01:02;;;;;;;27.03;18.53;;;2.60;99.90;;;;;;5075809;28;20245;-74
2022/12/09 10:03:40;;;;;;;24.60;19.00;;;2.80;99.90;;;;;;5075464;28;20204;-73
2022/12/09 10:06:17;;;;;;;23.27;19.00;;;3.00;99.90;;;;;;5075009;28;20231;-73
2022/12/09 10:08:54;;;;;;;26.10;18.43;;;3.60;99.90;;;;;;5074409;28;20719;-74
2022/12/09 10:11:26;;;;;;;24.50;18.57;;;4.00;99.90;;;;;;5074648;28;20197;-74
2022/12/09 10:13:59;;;;;;;24.33;17.93;;;3.90;99.90;;;;;;5074478;28;20748;-73
2022/12/09 10:16:33;;;;;;;23.43;18.73;;;3.90;99.90;;;;;;5074533;28;20193;-73
2022/12/09 10:19:03;;;;;;;25.20;18.50;;;4.20;99.90;;;;;;5074458;28;20647;-73
2022/12/09 10:21:32;;;;;;;23.47;18.00;;;4.60;99.90;;;;;;5075158;28;20258;-74
2022/12/09 10:24:13;;;;;;;26.13;19.20;;;5.20;99.90;;;;;;5054330;28;20206;-74
2022/12/09 10:26:40;;;;;;;24.13;19.17;;;4.80;99.90;;;;;;5070671;28;20189;-73
2022/12/09 10:29:13;;;;;;;22.57;18.57;;;4.30;99.90;;;;;;5074090;28;20197;-73
2022/12/09 10:31:39;;;;;;;20.80;17.97;;;4.00;99.90;;;;;;5074126;28;20199;-74
2022/12/09 10:34:08;;;;;;;24.50;19.60;;;3.60;99.90;;;;;;5074174;28;20226;-74
2022/12/09 10:36:37;;;;;;;21.53;17.87;;;3.50;99.90;;;;;;5074059;28;20193;-75
2022/12/09 10:39:04;;;;;;;26.97;19.97;;;3.30;99.90;;;;;;5074177;28;20259;-74
2022/12/09 10:44:27;;;;;;;27.30;19.67;;;3.00;99.90;;;;;;5079080;28;20666;-72
2022/12/09 10:46:59;;;;;;;27.67;20.40;;;2.90;99.90;;;;;;5078085;28;20656;-73
2022/12/09 10:49:26;;;;;;;30.23;20.93;;;2.80;99.90;;;;;;5080847;28;20255;-75
2022/12/09 10:51:54;;;;;;;29.87;21.40;;;2.70;99.90;;;;;;5081556;28;20208;-75
2022/12/09 10:54:31;;;;;;;28.50;20.07;;;2.80;99.90;;;;;;5078633;28;20228;-75
2022/12/09 10:57:08;;;;;;;29.80;19.87;;;3.00;99.90;;;;;;5078412;28;20556;-76
2022/12/09 10:59:35;;;;;;;26.57;19.70;;;3.10;99.90;;;;;;5078948;28;20204;-74
2022/12/09 11:02:17;;;;;;;31.97;20.37;;;3.10;99.90;;;;;;5078635;28;20773;-75
2022/12/09 11:04:45;;;;;;;26.43;19.77;;;2.80;99.90;;;;;;5078379;28;20316;-74
2022/12/09 11:07:17;;;;;;;29.83;20.37;;;2.80;99.90;;;;;;5080334;28;20200;-74
2022/12/09 11:09:46;;;;;;;28.57;20.50;;;2.80;99.90;;;;;;5074980;28;20311;-75
2022/12/09 11:12:29;;;;;;;29.00;20.10;;;2.70;99.90;;;;;;5074714;28;20208;-74
2022/12/09 11:14:58;;;;;;;30.60;20.23;;;2.70;99.90;;;;;;5074599;28;20228;-74
2022/12/09 11:17:27;;;;;;;29.00;20.17;;;2.80;99.90;;;;;;5073907;28;20192;-74
2022/12/09 11:19:56;;;;;;;28.07;20.37;;;2.80;99.90;;;;;;5074571;28;20201;-74
2022/12/09 11:22:37;;;;;;;24.30;18.43;;;2.80;99.90;;;;;;5074477;28;20200;-74
2022/12/09 11:25:20;;;;;;;28.80;20.33;;;2.90;99.90;;;;;;5073675;28;20564;-74
2022/12/09 11:27:50;;;;;;;29.67;19.90;;;2.90;99.90;;;;;;5073249;28;20251;-74
2022/12/09 11:30:18;;;;;;;31.80;21.27;;;2.90;99.90;;;;;;5073838;28;20204;-75
2022/12/09 11:33:00;;;;;;;30.77;20.43;;;2.80;99.90;;;;;;5073726;28;20244;-74
2022/12/09 11:35:35;;;;;;;30.17;20.63;;;2.70;99.90;;;;;;5074284;28;20258;-74
2022/12/09 11:38:17;;;;;;;31.47;20.63;;;2.80;99.90;;;;;;5073644;28;20745;-74
2022/12/09 11:40:58;;;;;;;28.47;19.97;;;3.20;99.90;;;;;;5073422;28;20238;-74
2022/12/09 11:43:31;;;;;;;29.07;19.23;;;3.50;99.90;;;;;;5073225;28;20269;-73
2022/12/09 11:45:58;;;;;;;26.90;19.90;;;3.40;99.90;;;;;;5072896;28;20203;-74
2022/12/09 11:48:28;;;;;;;26.10;19.10;;;3.50;99.90;;;;;;5072657;28;20656;-74
2022/12/09 11:50:55;;;;;;;30.93;20.87;;;3.90;99.90;;;;;;5072884;28;20200;-74
2022/12/09 11:53:29;;;;;;;37.20;21.53;;;3.90;99.90;;;;;;5072371;28;20217;-74
2022/12/09 11:56:02;;;;;;;29.67;19.27;;;4.30;99.90;;;;;;5072308;28;20197;-75
2022/12/09 11:58:35;;;;;;;27.00;18.50;;;4.30;99.90;;;;;;5072386;28;20699;-76
2022/12/09 12:01:06;;;;;;;26.83;19.60;;;4.50;99.90;;;;;;5072509;28;20284;-72
2022/12/09 12:03:39;;;;;;;25.10;18.67;;;4.10;99.90;;;;;;5072703;28;20201;-73
2022/12/09 12:06:12;;;;;;;27.60;19.60;;;3.90;99.90;;;;;;5072566;28;20205;-73
2022/12/09 12:08:45;;;;;;;28.07;20.10;;;3.70;99.90;;;;;;5072423;28;20261;-73
2022/12/09 12:11:13;;;;;;;26.13;19.53;;;4.00;99.90;;;;;;5072530;28;20258;-73
2022/12/09 12:13:44;;;;;;;28.27;20.77;;;4.10;99.90;;;;;;5072554;28;20266;-73
2022/12/09 12:16:15;;;;;;;25.77;19.70;;;4.10;99.90;;;;;;5072502;28;20207;-73
2022/12/09 12:18:46;;;;;;;25.03;19.00;;;3.90;99.90;;;;;;5072450;28;20583;-73
2022/12/09 12:21:49;;;;;;;28.57;21.40;;;4.20;99.90;;;;;;5072416;28;20733;-73
2022/12/09 12:24:39;;;;;;;24.67;18.90;;;4.20;99.90;;;;;;5072463;28;20196;-74
2022/12/09 12:27:23;;;;;;;24.83;18.87;;;3.80;99.90;;;;;;5072307;28;20208;-73
2022/12/09 12:29:56;;;;;;;27.50;19.60;;;3.60;99.90;;;;;;5072425;28;20243;-73
2022/12/09 12:32:40;;;;;;;26.30;19.07;;;3.60;99.90;;;;;;5072338;28;20200;-73
2022/12/09 12:35:26;;;;;;;24.53;19.43;;;3.50;99.90;;;;;;5072308;28;20228;-73
2022/12/09 12:38:04;;;;;;;27.63;19.67;;;3.60;99.90;;;;;;5072288;28;20201;-72
2022/12/09 12:40:39;;;;;;;26.77;19.63;;;4.40;99.90;;;;;;5072298;28;20250;-73
2022/12/09 12:46:25;;;;;;;26.80;19.37;;;5.00;99.90;;;;;;5054678;28;20199;-72
2022/12/09 12:49:06;;;;;;;27.40;18.57;;;4.80;99.90;;;;;;5070518;28;20669;-74